Decoded Metar for PASN (ST. PAUL ISLAND in AK, USA) (IATA:SNP) | Meteo·Mobile Aviation Weather
aviador You're here:

PASN Decoded Metar

ST. PAUL ISLAND in AK, USA
Report Time2019-08-24 13:53:00
UTC Time2019-08-24 14:17:29
Flight Rules vfr VFR
Wind310° at 07 kt
W.Decomp.*RWY 36: 3.5 kt HW 6.1 kt LCW
Visibility9999 m
Phenomena:N/A
Clouds:Broken 040 Hf
Ceiling4,000 ft
Temp07°C (ISA -8)
Dew Point07°C (100% RH)
AAT3.8°C
QNH1014 hPa
Density Alt-745 ft
Elevation95 ft
Report Wrong Elevation
Raw Report
PASN 241353Z AUTO 31007KT 10SM BKN040 07/07 A2993 RMK AO2 SLP136
T00720067 TSNO $=

Extra information for PASN:More info

Metar Taf Metar & Taf Last 4 Metars F.Rules Stats Wind Profile Meteogram Temp Stats Airport Information Weather charts Add Link Nearby VenuesMetar ALERT Operation Metar Decoded Social comments

AIRNAV info for PASN